sensor_id;sensor_type;location;lat;lon;timestamp;temperature;humidity
23405;DHT22;11875;49.356;2.718;2023-08-01T00:00:31;19.40;99.90
23405;DHT22;11875;49.356;2.718;2023-08-01T00:02:57;19.50;99.90
23405;DHT22;11875;49.356;2.718;2023-08-01T00:05:22;19.60;99.90
23405;DHT22;11875;49.356;2.718;2023-08-01T00:07:48;19.60;99.90
23405;DHT22;11875;49.356;2.718;2023-08-01T00:10:14;19.50;99.90
23405;DHT22;11875;49.356;2.718;2023-08-01T00:12:41;19.50;99.90
23405;DHT22;11875;49.356;2.718;2023-08-01T00:15:07;19.60;99.90
23405;DHT22;11875;49.356;2.718;2023-08-01T00:17:33;19.40;99.90
23405;DHT22;11875;49.356;2.718;2023-08-01T00:20:00;19.30;99.90
23405;DHT22;11875;49.356;2.718;2023-08-01T00:22:26;19.40;99.90
23405;DHT22;11875;49.356;2.718;2023-08-01T00:24:52;19.40;99.90
23405;DHT22;11875;49.356;2.718;2023-08-01T00:27:17;19.50;99.90
23405;DHT22;11875;49.356;2.718;2023-08-01T00:29:43;19.50;99.90
23405;DHT22;11875;49.356;2.718;2023-08-01T00:32:08;19.70;99.90
23405;DHT22;11875;49.356;2.718;2023-08-01T00:34:34;19.80;99.90
23405;DHT22;11875;49.356;2.718;2023-08-01T00:36:59;19.60;99.90
23405;DHT22;11875;49.356;2.718;2023-08-01T00:39:25;19.60;99.90
23405;DHT22;11875;49.356;2.718;2023-08-01T00:41:50;19.60;99.90
23405;DHT22;11875;49.356;2.718;2023-08-01T00:44:16;19.70;99.90
23405;DHT22;11875;49.356;2.718;2023-08-01T00:46:42;19.90;99.90
23405;DHT22;11875;49.356;2.718;2023-08-01T00:49:07;20.00;99.90
23405;DHT22;11875;49.356;2.718;2023-08-01T00:51:34;20.00;99.90
23405;DHT22;11875;49.356;2.718;2023-08-01T00:54:00;20.00;99.90
23405;DHT22;11875;49.356;2.718;2023-08-01T00:56:26;19.80;99.90
23405;DHT22;11875;49.356;2.718;2023-08-01T00:58:51;19.80;99.90
23405;DHT22;11875;49.356;2.718;2023-08-01T01:01:17;19.70;99.90
23405;DHT22;11875;49.356;2.718;2023-08-01T01:03:43;19.70;99.90
23405;DHT22;11875;49.356;2.718;2023-08-01T01:06:32;19.60;99.90
23405;DHT22;11875;49.356;2.718;2023-08-01T01:08:58;19.60;99.90
23405;DHT22;11875;49.356;2.718;2023-08-01T01:11:24;19.70;99.90
23405;DHT22;11875;49.356;2.718;2023-08-01T01:13:49;19.70;99.90
23405;DHT22;11875;49.356;2.718;2023-08-01T01:16:19;19.70;99.90
23405;DHT22;11875;49.356;2.718;2023-08-01T01:18:45;19.70;99.90
23405;DHT22;11875;49.356;2.718;2023-08-01T01:21:10;19.70;99.90
23405;DHT22;11875;49.356;2.718;2023-08-01T01:23:36;19.80;99.90
23405;DHT22;11875;49.356;2.718;2023-08-01T01:26:02;19.70;99.90
23405;DHT22;11875;49.356;2.718;2023-08-01T01:28:30;19.70;99.90
23405;DHT22;11875;49.356;2.718;2023-08-01T01:30:56;19.80;99.90
23405;DHT22;11875;49.356;2.718;2023-08-01T01:33:23;19.90;99.90
23405;DHT22;11875;49.356;2.718;2023-08-01T01:35:49;19.90;99.90
23405;DHT22;11875;49.356;2.718;2023-08-01T01:38:14;19.80;99.90
23405;DHT22;11875;49.356;2.718;2023-08-01T01:40:40;19.70;99.90
23405;DHT22;11875;49.356;2.718;2023-08-01T01:43:06;19.70;99.90
23405;DHT22;11875;49.356;2.718;2023-08-01T01:45:31;19.80;99.90
23405;DHT22;11875;49.356;2.718;2023-08-01T01:47:57;19.80;99.90
23405;DHT22;11875;49.356;2.718;2023-08-01T01:50:22;19.80;99.90
23405;DHT22;11875;49.356;2.718;2023-08-01T01:52:48;19.80;99.90
23405;DHT22;11875;49.356;2.718;2023-08-01T01:55:13;19.80;99.90
23405;DHT22;11875;49.356;2.718;2023-08-01T01:57:39;19.70;99.90
23405;DHT22;11875;49.356;2.718;2023-08-01T02:00:06;19.80;99.90
23405;DHT22;11875;49.356;2.718;2023-08-01T02:02:36;19.70;99.90
23405;DHT22;11875;49.356;2.718;2023-08-01T02:05:01;19.70;99.90
23405;DHT22;11875;49.356;2.718;2023-08-01T02:07:29;19.70;99.90
23405;DHT22;11875;49.356;2.718;2023-08-01T02:09:56;19.60;99.90
23405;DHT22;11875;49.356;2.718;2023-08-01T02:12:21;19.50;99.90
23405;DHT22;11875;49.356;2.718;2023-08-01T02:14:47;19.50;99.90
23405;DHT22;11875;49.356;2.718;2023-08-01T02:17:12;19.40;99.90
23405;DHT22;11875;49.356;2.718;2023-08-01T02:19:38;19.40;99.90
23405;DHT22;11875;49.356;2.718;2023-08-01T02:22:04;19.30;99.90
23405;DHT22;11875;49.356;2.718;2023-08-01T02:24:29;19.20;99.90
23405;DHT22;11875;49.356;2.718;2023-08-01T02:26:55;19.10;99.90
23405;DHT22;11875;49.356;2.718;2023-08-01T02:29:21;19.20;99.90
23405;DHT22;11875;49.356;2.718;2023-08-01T02:31:46;19.20;99.90
23405;DHT22;11875;49.356;2.718;2023-08-01T02:34:12;19.20;99.90
23405;DHT22;11875;49.356;2.718;2023-08-01T02:36:37;19.20;99.90
23405;DHT22;11875;49.356;2.718;2023-08-01T02:39:06;19.30;99.90
23405;DHT22;11875;49.356;2.718;2023-08-01T02:41:31;19.30;99.90
23405;DHT22;11875;49.356;2.718;2023-08-01T02:43:57;19.30;99.90
23405;DHT22;11875;49.356;2.718;2023-08-01T02:46:22;19.40;99.90
23405;DHT22;11875;49.356;2.718;2023-08-01T02:48:48;19.40;99.90
23405;DHT22;11875;49.356;2.718;2023-08-01T02:51:14;19.40;99.90
23405;DHT22;11875;49.356;2.718;2023-08-01T02:53:39;19.50;99.90
23405;DHT22;11875;49.356;2.718;2023-08-01T02:56:07;19.50;99.90
23405;DHT22;11875;49.356;2.718;2023-08-01T02:58:34;19.50;99.90
23405;DHT22;11875;49.356;2.718;2023-08-01T03:01:00;19.30;99.90
23405;DHT22;11875;49.356;2.718;2023-08-01T03:03:26;19.20;99.90
23405;DHT22;11875;49.356;2.718;2023-08-01T03:05:53;19.20;99.90
23405;DHT22;11875;49.356;2.718;2023-08-01T03:08:18;19.10;99.90
23405;DHT22;11875;49.356;2.718;2023-08-01T03:10:44;19.10;99.90
23405;DHT22;11875;49.356;2.718;2023-08-01T03:13:10;19.00;99.90
23405;DHT22;11875;49.356;2.718;2023-08-01T03:15:35;18.90;99.90
23405;DHT22;11875;49.356;2.718;2023-08-01T03:18:01;18.90;99.90
23405;DHT22;11875;49.356;2.718;2023-08-01T03:20:27;18.80;99.90
23405;DHT22;11875;49.356;2.718;2023-08-01T03:22:52;18.80;99.90
23405;DHT22;11875;49.356;2.718;2023-08-01T03:25:18;18.80;99.90
23405;DHT22;11875;49.356;2.718;2023-08-01T03:27:43;18.70;99.90
23405;DHT22;11875;49.356;2.718;2023-08-01T03:30:09;18.70;99.90
23405;DHT22;11875;49.356;2.718;2023-08-01T03:32:35;18.60;99.90
23405;DHT22;11875;49.356;2.718;2023-08-01T03:35:05;18.70;99.90
23405;DHT22;11875;49.356;2.718;2023-08-01T03:37:31;18.60;99.90
23405;DHT22;11875;49.356;2.718;2023-08-01T03:39:57;18.70;99.90
23405;DHT22;11875;49.356;2.718;2023-08-01T03:42:22;18.80;99.90
23405;DHT22;11875;49.356;2.718;2023-08-01T03:44:48;18.80;99.90
23405;DHT22;11875;49.356;2.718;2023-08-01T03:47:13;18.70;99.90
23405;DHT22;11875;49.356;2.718;2023-08-01T03:49:39;18.70;99.90
23405;DHT22;11875;49.356;2.718;2023-08-01T03:52:05;18.60;99.90
23405;DHT22;11875;49.356;2.718;2023-08-01T03:54:31;18.60;99.90
23405;DHT22;11875;49.356;2.718;2023-08-01T03:56:57;18.60;99.90
23405;DHT22;11875;49.356;2.718;2023-08-01T03:59:23;18.60;99.90
23405;DHT22;11875;49.356;2.718;2023-08-01T04:01:49;18.60;99.90
23405;DHT22;11875;49.356;2.718;2023-08-01T04:04:15;18.40;99.90
23405;DHT22;11875;49.356;2.718;2023-08-01T04:06:42;18.30;99.90
23405;DHT22;11875;49.356;2.718;2023-08-01T04:09:07;18.20;99.90
23405;DHT22;11875;49.356;2.718;2023-08-01T04:11:33;18.40;99.90
23405;DHT22;11875;49.356;2.718;2023-08-01T04:13:58;18.30;99.90
23405;DHT22;11875;49.356;2.718;2023-08-01T04:16:24;18.30;99.90
23405;DHT22;11875;49.356;2.718;2023-08-01T04:18:50;18.20;99.90
23405;DHT22;11875;49.356;2.718;2023-08-01T04:21:16;18.20;99.90
23405;DHT22;11875;49.356;2.718;2023-08-01T04:23:41;18.30;99.90
23405;DHT22;11875;49.356;2.718;2023-08-01T04:26:07;18.20;99.90
23405;DHT22;11875;49.356;2.718;2023-08-01T04:28:34;18.20;99.90
23405;DHT22;11875;49.356;2.718;2023-08-01T04:31:00;18.00;99.90
23405;DHT22;11875;49.356;2.718;2023-08-01T04:33:25;17.90;99.90
23405;DHT22;11875;49.356;2.718;2023-08-01T04:35:51;17.80;99.90
23405;DHT22;11875;49.356;2.718;2023-08-01T04:38:17;17.80;99.90
23405;DHT22;11875;49.356;2.718;2023-08-01T04:40:42;17.80;99.90
23405;DHT22;11875;49.356;2.718;2023-08-01T04:43:08;17.70;99.90
23405;DHT22;11875;49.356;2.718;2023-08-01T04:45:34;17.60;99.90
23405;DHT22;11875;49.356;2.718;2023-08-01T04:48:00;17.60;99.90
23405;DHT22;11875;49.356;2.718;2023-08-01T04:50:25;17.50;99.90
23405;DHT22;11875;49.356;2.718;2023-08-01T04:52:51;17.60;99.90
23405;DHT22;11875;49.356;2.718;2023-08-01T04:55:16;17.60;99.90
23405;DHT22;11875;49.356;2.718;2023-08-01T04:57:42;17.60;99.90
23405;DHT22;11875;49.356;2.718;2023-08-01T05:00:09;17.70;99.90
23405;DHT22;11875;49.356;2.718;2023-08-01T05:02:35;17.70;99.90
23405;DHT22;11875;49.356;2.718;2023-08-01T05:05:01;17.80;99.90
23405;DHT22;11875;49.356;2.718;2023-08-01T05:07:26;17.80;99.90
23405;DHT22;11875;49.356;2.718;2023-08-01T05:09:52;17.80;99.90
23405;DHT22;11875;49.356;2.718;2023-08-01T05:12:17;17.90;99.90
23405;DHT22;11875;49.356;2.718;2023-08-01T05:14:43;18.00;99.90
23405;DHT22;11875;49.356;2.718;2023-08-01T05:17:08;18.10;99.90
23405;DHT22;11875;49.356;2.718;2023-08-01T05:19:34;18.10;99.90
23405;DHT22;11875;49.356;2.718;2023-08-01T05:22:00;18.00;99.90
23405;DHT22;11875;49.356;2.718;2023-08-01T05:24:26;17.90;99.90
23405;DHT22;11875;49.356;2.718;2023-08-01T05:26:52;18.00;99.90
23405;DHT22;11875;49.356;2.718;2023-08-01T05:29:17;18.00;99.90
23405;DHT22;11875;49.356;2.718;2023-08-01T05:31:43;17.90;99.90
23405;DHT22;11875;49.356;2.718;2023-08-01T05:34:08;18.10;99.90
23405;DHT22;11875;49.356;2.718;2023-08-01T05:36:34;18.10;99.90
23405;DHT22;11875;49.356;2.718;2023-08-01T05:38:59;18.00;99.90
23405;DHT22;11875;49.356;2.718;2023-08-01T05:41:25;18.20;99.90
23405;DHT22;11875;49.356;2.718;2023-08-01T05:43:51;18.10;99.90
23405;DHT22;11875;49.356;2.718;2023-08-01T05:46:17;18.20;99.90
23405;DHT22;11875;49.356;2.718;2023-08-01T05:48:42;18.30;99.90
23405;DHT22;11875;49.356;2.718;2023-08-01T05:51:08;18.40;99.90
23405;DHT22;11875;49.356;2.718;2023-08-01T05:53:33;18.40;99.90
23405;DHT22;11875;49.356;2.718;2023-08-01T05:55:59;18.50;99.90
23405;DHT22;11875;49.356;2.718;2023-08-01T05:58:25;18.40;99.90
23405;DHT22;11875;49.356;2.718;2023-08-01T06:00:50;18.30;99.90
23405;DHT22;11875;49.356;2.718;2023-08-01T06:03:16;18.30;99.90
23405;DHT22;11875;49.356;2.718;2023-08-01T06:05:42;18.40;99.90
23405;DHT22;11875;49.356;2.718;2023-08-01T06:08:08;18.40;99.90
23405;DHT22;11875;49.356;2.718;2023-08-01T06:10:34;18.40;99.90
23405;DHT22;11875;49.356;2.718;2023-08-01T06:13:00;18.40;99.90
23405;DHT22;11875;49.356;2.718;2023-08-01T06:15:25;18.50;99.90
23405;DHT22;11875;49.356;2.718;2023-08-01T06:17:51;18.50;99.90
23405;DHT22;11875;49.356;2.718;2023-08-01T06:20:16;18.60;99.90
23405;DHT22;11875;49.356;2.718;2023-08-01T06:22:42;18.60;99.90
23405;DHT22;11875;49.356;2.718;2023-08-01T06:25:08;18.60;99.90
23405;DHT22;11875;49.356;2.718;2023-08-01T06:27:34;18.50;99.90
23405;DHT22;11875;49.356;2.718;2023-08-01T06:30:00;18.60;99.90
23405;DHT22;11875;49.356;2.718;2023-08-01T06:32:26;18.60;99.90
23405;DHT22;11875;49.356;2.718;2023-08-01T06:34:51;18.60;99.90
23405;DHT22;11875;49.356;2.718;2023-08-01T06:37:17;18.70;99.90
23405;DHT22;11875;49.356;2.718;2023-08-01T06:39:43;18.80;99.90
23405;DHT22;11875;49.356;2.718;2023-08-01T06:42:08;18.70;99.90
23405;DHT22;11875;49.356;2.718;2023-08-01T06:44:34;18.80;99.90
23405;DHT22;11875;49.356;2.718;2023-08-01T06:46:59;18.90;99.90
23405;DHT22;11875;49.356;2.718;2023-08-01T06:49:25;18.80;99.90
23405;DHT22;11875;49.356;2.718;2023-08-01T06:51:51;18.80;99.90
23405;DHT22;11875;49.356;2.718;2023-08-01T06:54:16;18.80;99.90
23405;DHT22;11875;49.356;2.718;2023-08-01T06:56:42;18.90;99.90
23405;DHT22;11875;49.356;2.718;2023-08-01T06:59:16;19.00;99.90
23405;DHT22;11875;49.356;2.718;2023-08-01T07:01:42;19.00;99.90
23405;DHT22;11875;49.356;2.718;2023-08-01T07:04:12;18.90;99.90
23405;DHT22;11875;49.356;2.718;2023-08-01T07:06:38;18.80;99.90
23405;DHT22;11875;49.356;2.718;2023-08-01T07:09:03;18.60;99.90
23405;DHT22;11875;49.356;2.718;2023-08-01T07:11:29;18.60;99.90
23405;DHT22;11875;49.356;2.718;2023-08-01T07:13:55;18.50;99.90
23405;DHT22;11875;49.356;2.718;2023-08-01T07:16:20;18.60;99.90
23405;DHT22;11875;49.356;2.718;2023-08-01T07:18:46;18.70;99.90
23405;DHT22;11875;49.356;2.718;2023-08-01T07:21:14;19.10;99.90
23405;DHT22;11875;49.356;2.718;2023-08-01T07:23:40;19.30;99.90
23405;DHT22;11875;49.356;2.718;2023-08-01T07:26:05;19.60;99.90
23405;DHT22;11875;49.356;2.718;2023-08-01T07:28:31;19.60;99.90
23405;DHT22;11875;49.356;2.718;2023-08-01T07:31:05;19.50;99.90
23405;DHT22;11875;49.356;2.718;2023-08-01T07:33:32;19.40;99.90
23405;DHT22;11875;49.356;2.718;2023-08-01T07:35:58;19.60;99.90
23405;DHT22;11875;49.356;2.718;2023-08-01T07:38:24;19.70;99.90
23405;DHT22;11875;49.356;2.718;2023-08-01T07:40:50;20.00;99.90
23405;DHT22;11875;49.356;2.718;2023-08-01T07:43:16;20.20;99.90
23405;DHT22;11875;49.356;2.718;2023-08-01T07:45:41;20.50;99.90
23405;DHT22;11875;49.356;2.718;2023-08-01T07:48:07;20.50;99.90
23405;DHT22;11875;49.356;2.718;2023-08-01T07:50:32;20.70;99.90
23405;DHT22;11875;49.356;2.718;2023-08-01T07:52:58;20.90;99.90
23405;DHT22;11875;49.356;2.718;2023-08-01T07:55:24;21.10;99.90
23405;DHT22;11875;49.356;2.718;2023-08-01T07:57:50;21.10;99.90
23405;DHT22;11875;49.356;2.718;2023-08-01T08:00:15;21.30;99.90
23405;DHT22;11875;49.356;2.718;2023-08-01T08:02:42;21.40;99.90
23405;DHT22;11875;49.356;2.718;2023-08-01T08:05:09;21.60;99.90
23405;DHT22;11875;49.356;2.718;2023-08-01T08:07:36;21.80;99.90
23405;DHT22;11875;49.356;2.718;2023-08-01T08:10:03;21.80;99.90
23405;DHT22;11875;49.356;2.718;2023-08-01T08:12:28;21.60;99.90
23405;DHT22;11875;49.356;2.718;2023-08-01T08:14:54;21.30;99.90
23405;DHT22;11875;49.356;2.718;2023-08-01T08:17:19;21.00;99.90
23405;DHT22;11875;49.356;2.718;2023-08-01T08:19:45;21.00;99.90
23405;DHT22;11875;49.356;2.718;2023-08-01T08:22:10;21.00;99.90
23405;DHT22;11875;49.356;2.718;2023-08-01T08:24:36;20.80;99.90
23405;DHT22;11875;49.356;2.718;2023-08-01T08:27:02;20.80;99.90
23405;DHT22;11875;49.356;2.718;2023-08-01T08:29:28;20.80;99.90
23405;DHT22;11875;49.356;2.718;2023-08-01T08:31:53;20.80;99.90
23405;DHT22;11875;49.356;2.718;2023-08-01T08:34:19;20.90;99.90
23405;DHT22;11875;49.356;2.718;2023-08-01T08:36:45;20.90;99.90
23405;DHT22;11875;49.356;2.718;2023-08-01T08:39:11;21.00;99.90
23405;DHT22;11875;49.356;2.718;2023-08-01T08:41:46;21.10;99.90
23405;DHT22;11875;49.356;2.718;2023-08-01T08:44:16;21.20;99.90
23405;DHT22;11875;49.356;2.718;2023-08-01T08:46:43;21.20;99.90
23405;DHT22;11875;49.356;2.718;2023-08-01T08:49:10;21.20;99.90
23405;DHT22;11875;49.356;2.718;2023-08-01T08:51:36;21.20;99.90
23405;DHT22;11875;49.356;2.718;2023-08-01T08:54:03;21.20;99.90
23405;DHT22;11875;49.356;2.718;2023-08-01T08:56:30;21.20;99.90
23405;DHT22;11875;49.356;2.718;2023-08-01T08:58:56;21.30;99.90
23405;DHT22;11875;49.356;2.718;2023-08-01T09:01:22;21.30;99.90
23405;DHT22;11875;49.356;2.718;2023-08-01T09:03:47;21.20;99.90
23405;DHT22;11875;49.356;2.718;2023-08-01T09:06:17;21.10;99.90
23405;DHT22;11875;49.356;2.718;2023-08-01T09:09:02;21.20;99.90
23405;DHT22;11875;49.356;2.718;2023-08-01T09:11:28;21.30;99.90
23405;DHT22;11875;49.356;2.718;2023-08-01T09:13:53;21.40;99.90
23405;DHT22;11875;49.356;2.718;2023-08-01T09:16:19;21.30;99.90
23405;DHT22;11875;49.356;2.718;2023-08-01T09:18:51;21.40;99.90
23405;DHT22;11875;49.356;2.718;2023-08-01T09:21:21;21.60;99.90
23405;DHT22;11875;49.356;2.718;2023-08-01T09:23:47;21.80;99.90
23405;DHT22;11875;49.356;2.718;2023-08-01T09:26:16;22.10;99.90
23405;DHT22;11875;49.356;2.718;2023-08-01T09:28:42;22.20;99.90
23405;DHT22;11875;49.356;2.718;2023-08-01T09:31:09;22.20;99.90
23405;DHT22;11875;49.356;2.718;2023-08-01T09:33:42;22.30;99.90
23405;DHT22;11875;49.356;2.718;2023-08-01T09:36:08;22.20;99.90
23405;DHT22;11875;49.356;2.718;2023-08-01T09:38:37;22.00;99.90
23405;DHT22;11875;49.356;2.718;2023-08-01T09:41:04;22.00;99.90
23405;DHT22;11875;49.356;2.718;2023-08-01T09:43:36;21.90;99.90
23405;DHT22;11875;49.356;2.718;2023-08-01T09:46:02;21.90;99.90
23405;DHT22;11875;49.356;2.718;2023-08-01T09:48:30;21.60;99.90
23405;DHT22;11875;49.356;2.718;2023-08-01T09:51:06;21.50;99.90
23405;DHT22;11875;49.356;2.718;2023-08-01T09:53:32;21.30;99.90
23405;DHT22;11875;49.356;2.718;2023-08-01T09:56:00;21.20;99.90
23405;DHT22;11875;49.356;2.718;2023-08-01T09:58:31;21.20;99.90
23405;DHT22;11875;49.356;2.718;2023-08-01T10:00:57;21.20;99.90
23405;DHT22;11875;49.356;2.718;2023-08-01T10:03:23;21.10;99.90
23405;DHT22;11875;49.356;2.718;2023-08-01T10:05:51;21.20;99.90
23405;DHT22;11875;49.356;2.718;2023-08-01T10:08:19;21.30;99.90
23405;DHT22;11875;49.356;2.718;2023-08-01T10:10:46;21.40;99.90
23405;DHT22;11875;49.356;2.718;2023-08-01T10:13:13;21.50;99.90
23405;DHT22;11875;49.356;2.718;2023-08-01T10:15:39;21.70;99.90
23405;DHT22;11875;49.356;2.718;2023-08-01T10:18:05;21.80;99.90
23405;DHT22;11875;49.356;2.718;2023-08-01T10:20:31;21.90;99.90
23405;DHT22;11875;49.356;2.718;2023-08-01T10:22:58;21.80;99.90
23405;DHT22;11875;49.356;2.718;2023-08-01T10:25:24;22.10;99.90
23405;DHT22;11875;49.356;2.718;2023-08-01T10:27:59;22.10;99.90
23405;DHT22;11875;49.356;2.718;2023-08-01T10:30:28;22.20;99.90
23405;DHT22;11875;49.356;2.718;2023-08-01T10:32:55;22.30;99.90
23405;DHT22;11875;49.356;2.718;2023-08-01T10:35:38;22.40;99.90
23405;DHT22;11875;49.356;2.718;2023-08-01T10:38:11;22.60;99.90
23405;DHT22;11875;49.356;2.718;2023-08-01T10:40:42;22.70;99.90
23405;DHT22;11875;49.356;2.718;2023-08-01T10:43:24;22.70;99.90
23405;DHT22;11875;49.356;2.718;2023-08-01T10:46:03;22.70;99.90
23405;DHT22;11875;49.356;2.718;2023-08-01T10:48:29;22.80;99.90
23405;DHT22;11875;49.356;2.718;2023-08-01T10:50:56;22.70;99.90
23405;DHT22;11875;49.356;2.718;2023-08-01T10:53:24;22.40;99.90
23405;DHT22;11875;49.356;2.718;2023-08-01T10:55:50;22.10;99.90
23405;DHT22;11875;49.356;2.718;2023-08-01T10:58:16;22.00;99.90
23405;DHT22;11875;49.356;2.718;2023-08-01T11:00:42;21.90;99.90
23405;DHT22;11875;49.356;2.718;2023-08-01T11:03:08;21.90;99.90
23405;DHT22;11875;49.356;2.718;2023-08-01T11:05:34;22.10;99.90
23405;DHT22;11875;49.356;2.718;2023-08-01T11:08:02;22.10;99.90
23405;DHT22;11875;49.356;2.718;2023-08-01T11:10:30;22.10;99.90
23405;DHT22;11875;49.356;2.718;2023-08-01T11:12:57;21.90;99.90
23405;DHT22;11875;49.356;2.718;2023-08-01T11:15:23;21.70;99.90
23405;DHT22;11875;49.356;2.718;2023-08-01T11:17:52;21.70;99.90
23405;DHT22;11875;49.356;2.718;2023-08-01T11:20:19;21.60;99.90
23405;DHT22;11875;49.356;2.718;2023-08-01T11:22:57;21.80;99.90
23405;DHT22;11875;49.356;2.718;2023-08-01T11:25:33;22.00;99.90
23405;DHT22;11875;49.356;2.718;2023-08-01T11:28:10;22.10;99.90
23405;DHT22;11875;49.356;2.718;2023-08-01T11:30:37;22.20;99.90
23405;DHT22;11875;49.356;2.718;2023-08-01T11:33:13;22.30;99.90
23405;DHT22;11875;49.356;2.718;2023-08-01T11:35:40;22.60;99.90
23405;DHT22;11875;49.356;2.718;2023-08-01T11:38:06;22.70;99.90
23405;DHT22;11875;49.356;2.718;2023-08-01T11:40:32;23.00;99.90
23405;DHT22;11875;49.356;2.718;2023-08-01T11:42:58;23.10;99.90
23405;DHT22;11875;49.356;2.718;2023-08-01T11:45:24;23.20;99.90
23405;DHT22;11875;49.356;2.718;2023-08-01T11:47:50;23.20;99.90
23405;DHT22;11875;49.356;2.718;2023-08-01T11:50:21;23.00;99.90
23405;DHT22;11875;49.356;2.718;2023-08-01T11:52:48;23.00;99.90
23405;DHT22;11875;49.356;2.718;2023-08-01T11:55:25;23.00;99.90
23405;DHT22;11875;49.356;2.718;2023-08-01T11:57:56;23.00;99.90
23405;DHT22;11875;49.356;2.718;2023-08-01T12:00:26;22.90;99.90
23405;DHT22;11875;49.356;2.718;2023-08-01T12:03:07;23.10;99.90
23405;DHT22;11875;49.356;2.718;2023-08-01T12:05:33;23.30;99.90
23405;DHT22;11875;49.356;2.718;2023-08-01T12:08:12;23.30;99.90
23405;DHT22;11875;49.356;2.718;2023-08-01T12:10:39;23.40;99.90
23405;DHT22;11875;49.356;2.718;2023-08-01T12:13:05;23.50;99.90
23405;DHT22;11875;49.356;2.718;2023-08-01T12:15:31;23.50;99.90
23405;DHT22;11875;49.356;2.718;2023-08-01T12:17:57;23.60;99.90
23405;DHT22;11875;49.356;2.718;2023-08-01T12:20:22;23.50;99.90
23405;DHT22;11875;49.356;2.718;2023-08-01T12:22:48;23.40;99.90
23405;DHT22;11875;49.356;2.718;2023-08-01T12:25:13;23.30;99.90
23405;DHT22;11875;49.356;2.718;2023-08-01T12:27:39;23.10;99.90
23405;DHT22;11875;49.356;2.718;2023-08-01T12:30:05;23.10;99.90
23405;DHT22;11875;49.356;2.718;2023-08-01T12:32:30;23.20;99.90
23405;DHT22;11875;49.356;2.718;2023-08-01T12:34:56;23.30;99.90
23405;DHT22;11875;49.356;2.718;2023-08-01T12:37:22;23.40;99.90
23405;DHT22;11875;49.356;2.718;2023-08-01T12:39:47;23.40;99.90
23405;DHT22;11875;49.356;2.718;2023-08-01T12:42:13;23.40;99.90
23405;DHT22;11875;49.356;2.718;2023-08-01T12:44:38;22.80;99.90
23405;DHT22;11875;49.356;2.718;2023-08-01T12:47:04;23.60;99.90
23405;DHT22;11875;49.356;2.718;2023-08-01T12:49:30;23.60;99.90
23405;DHT22;11875;49.356;2.718;2023-08-01T12:51:56;23.60;99.90
23405;DHT22;11875;49.356;2.718;2023-08-01T12:54:23;23.60;99.90
23405;DHT22;11875;49.356;2.718;2023-08-01T12:56:48;23.70;99.90
23405;DHT22;11875;49.356;2.718;2023-08-01T12:59:14;23.60;99.90
23405;DHT22;11875;49.356;2.718;2023-08-01T13:01:39;23.80;99.90
23405;DHT22;11875;49.356;2.718;2023-08-01T13:04:05;23.80;99.90
23405;DHT22;11875;49.356;2.718;2023-08-01T13:06:30;23.70;99.90
23405;DHT22;11875;49.356;2.718;2023-08-01T13:08:56;23.70;99.90
23405;DHT22;11875;49.356;2.718;2023-08-01T13:11:21;23.70;99.90
23405;DHT22;11875;49.356;2.718;2023-08-01T13:13:47;23.70;99.90
23405;DHT22;11875;49.356;2.718;2023-08-01T13:16:13;23.60;99.90
23405;DHT22;11875;49.356;2.718;2023-08-01T13:18:40;23.50;99.90
23405;DHT22;11875;49.356;2.718;2023-08-01T13:21:09;23.70;99.90
23405;DHT22;11875;49.356;2.718;2023-08-01T13:23:35;23.80;99.90
23405;DHT22;11875;49.356;2.718;2023-08-01T13:26:00;23.90;99.90
23405;DHT22;11875;49.356;2.718;2023-08-01T13:28:27;24.10;99.90
23405;DHT22;11875;49.356;2.718;2023-08-01T13:30:53;24.20;99.90
23405;DHT22;11875;49.356;2.718;2023-08-01T13:33:19;24.30;99.90
23405;DHT22;11875;49.356;2.718;2023-08-01T13:35:44;24.50;99.90
23405;DHT22;11875;49.356;2.718;2023-08-01T13:38:10;24.40;99.90
23405;DHT22;11875;49.356;2.718;2023-08-01T13:40:36;24.50;99.90
23405;DHT22;11875;49.356;2.718;2023-08-01T13:43:01;24.60;99.90
23405;DHT22;11875;49.356;2.718;2023-08-01T13:45:30;24.50;99.90
23405;DHT22;11875;49.356;2.718;2023-08-01T13:47:56;24.50;99.90
23405;DHT22;11875;49.356;2.718;2023-08-01T13:50:22;24.60;99.90
23405;DHT22;11875;49.356;2.718;2023-08-01T13:52:48;24.60;99.90
23405;DHT22;11875;49.356;2.718;2023-08-01T13:55:13;24.60;99.90
23405;DHT22;11875;49.356;2.718;2023-08-01T13:57:42;24.50;99.90
23405;DHT22;11875;49.356;2.718;2023-08-01T14:00:08;24.50;99.90
23405;DHT22;11875;49.356;2.718;2023-08-01T14:02:34;24.50;99.90
23405;DHT22;11875;49.356;2.718;2023-08-01T14:05:00;24.40;99.90
23405;DHT22;11875;49.356;2.718;2023-08-01T14:07:25;24.30;99.90
23405;DHT22;11875;49.356;2.718;2023-08-01T14:09:51;24.30;99.90
23405;DHT22;11875;49.356;2.718;2023-08-01T14:12:16;24.20;99.90
23405;DHT22;11875;49.356;2.718;2023-08-01T14:14:44;24.20;99.90
23405;DHT22;11875;49.356;2.718;2023-08-01T14:17:10;24.20;99.90
23405;DHT22;11875;49.356;2.718;2023-08-01T14:19:35;24.10;99.90
23405;DHT22;11875;49.356;2.718;2023-08-01T14:22:01;24.10;99.90
23405;DHT22;11875;49.356;2.718;2023-08-01T14:24:27;24.20;99.90
23405;DHT22;11875;49.356;2.718;2023-08-01T14:26:52;24.30;99.90
23405;DHT22;11875;49.356;2.718;2023-08-01T14:29:18;24.40;99.90
23405;DHT22;11875;49.356;2.718;2023-08-01T14:31:48;24.60;99.90
23405;DHT22;11875;49.356;2.718;2023-08-01T14:34:15;24.70;99.90
23405;DHT22;11875;49.356;2.718;2023-08-01T14:36:40;24.80;99.90
23405;DHT22;11875;49.356;2.718;2023-08-01T14:39:06;24.90;99.90
23405;DHT22;11875;49.356;2.718;2023-08-01T14:41:31;24.90;99.90
23405;DHT22;11875;49.356;2.718;2023-08-01T14:43:57;25.10;99.90
23405;DHT22;11875;49.356;2.718;2023-08-01T14:46:22;25.20;99.90
23405;DHT22;11875;49.356;2.718;2023-08-01T14:48:48;25.40;99.90
23405;DHT22;11875;49.356;2.718;2023-08-01T14:51:14;25.30;99.90
23405;DHT22;11875;49.356;2.718;2023-08-01T14:53:39;26.20;99.90
23405;DHT22;11875;49.356;2.718;2023-08-01T14:56:05;25.30;99.90
23405;DHT22;11875;49.356;2.718;2023-08-01T14:58:33;25.10;99.90
23405;DHT22;11875;49.356;2.718;2023-08-01T15:01:05;25.10;99.90
23405;DHT22;11875;49.356;2.718;2023-08-01T15:03:30;25.30;99.90
23405;DHT22;11875;49.356;2.718;2023-08-01T15:05:56;25.40;99.90
23405;DHT22;11875;49.356;2.718;2023-08-01T15:08:21;25.50;99.90
23405;DHT22;11875;49.356;2.718;2023-08-01T15:10:47;25.40;99.90
23405;DHT22;11875;49.356;2.718;2023-08-01T15:13:12;25.40;99.90
23405;DHT22;11875;49.356;2.718;2023-08-01T15:15:38;25.40;99.90
23405;DHT22;11875;49.356;2.718;2023-08-01T15:18:04;25.30;99.90
23405;DHT22;11875;49.356;2.718;2023-08-01T15:20:31;24.90;99.90
23405;DHT22;11875;49.356;2.718;2023-08-01T15:23:00;24.70;99.90
23405;DHT22;11875;49.356;2.718;2023-08-01T15:25:26;24.50;99.90